Aérodrome :
LOGIN :

S'inscrire | Disclaimer

   EN    FR    IT 

 










Légende :    VFR   VFR Marginal   IFR   IFR Intensif   IFR Très Intensif
Visi : 
Plafond : 
>= 8 km
>= 3000ft
5 à 8 km
1000 à 3000 ft
1500m à 5 km
500 à 1000 ft
800 à 1500m
200 à 500 ft
< 800m
< 200 ft
Symboles :   Orages  Brouillard  Fortes neiges  Fortes précipitations  Vent > 20 kt
SIGMETs :   Divers  Orages  Givrage  Turbulence  Onde Orograph.  Cendres Volcan.






- Altitude de l'aérodrome : 256 ft
- Code IATA : KUN


EYKA - Kaunas

DERNIER METAR :
  • 272320Z 31003KT 250V030 CAVOK 13/08 Q1024

METARs EXPIRÉS :
  • 272250Z AUTO 30003KT 240V020 9999 OVC092/// 14/08 Q1024
  • 272220Z AUTO 30003KT 250V020 9999 OVC089/// 14/08 Q1024
  • 272150Z AUTO 29004KT 250V340 9999 BKN092/// OVC110/// 14/07 Q1024
  • 272120Z AUTO 28004KT 210V340 9999 OVC067/// 15/07 Q1024
  • 272050Z VRB02KT CAVOK 13/06 Q1025

TAF TAF EYKA
Valide du 28 à 00h jusqu'au 29 à 00h UTC


272314Z 2800/2824 VRB04KT 7000 NSC
PROB40
TEMPO 2800/2804 3000 BR SCT005
BECMG 2808/2809 SCT030
TEMPO 2809/2812 BKN020CB
TEMPO 2812/2818 02014KT 3000 SHRA SCT010 BKN020CB
PROB40
TEMPO 2812/2818 TS
BECMG 2818/2819 02014KT NSC



MET'MAP, la Météo Aéronautique d'un coup d'oeil ! - Copyright ORBIFLY Décembre 2007 - Disclaimer

ORBIFLY MET'MAP TEAM :

Programmation & Développement : Alexandra Zaïnal
Sur une idée originale de : Baudouin d'Aumeries
Assistance à la programmation : Marc-Olivier Méhu
Soutien technique & logistique : Manuel Goepfert

Contact : metmap@orbifly.com




SOURCES & CREDITS :

   NOAA